This is the latest recevied weather packets stored in our database for station/object WB3IGR. If no packets are shown the sender has not sent any weather packets the latest 10 day(s).
| Time | Temp. | Humidity | Pressure | Rain* | Wind** | Luminosity | Snow |
|---|---|---|---|---|---|---|---|
| 1778193121 | 18.89° C | 40% | 1009.8 hPa | 0 mm | - | 70 W/m² | - |
| 1778192817 | 18.89° C | 39% | 1009.7 hPa | 0 mm | - | 202 W/m² | - |
| 1778192514 | 18.33° C | 41% | 1009.8 hPa | 0 mm | - | 215 W/m² | - |
| 1778192210 | 17.78° C | 43% | 1009.6 hPa | 0 mm | - | 149 W/m² | - |
| 1778191906 | 17.22° C | 43% | 1009.8 hPa | 0 mm | - | 236 W/m² | - |
| 1778191603 | 18.33° C | 41% | 1009.7 hPa | 0 mm | - | 124 W/m² | - |
| 1778191302 | 17.22° C | 42% | 1009.7 hPa | 0 mm | - | 314 W/m² | - |
| 1778190997 | 17.22° C | 41% | 1009.6 hPa | 0 mm | - | 129 W/m² | - |
| 1778190695 | 17.78° C | 41% | 1009.8 hPa | 0 mm | - | 196 W/m² | - |
| 1778190392 | 17.22° C | 41% | 1009.9 hPa | 0 mm | - | 295 W/m² | - |
| 1778190089 | 17.78° C | 42% | 1010 hPa | 0 mm | - | 128 W/m² | - |
| 1778189785 | 18.33° C | 41% | 1009.9 hPa | 0 mm | - | 138 W/m² | - |
| 1778189482 | 18.89° C | 41% | 1010 hPa | 0 mm | - | 431 W/m² | - |
| 1778189178 | 18.33° C | 42% | 1009.9 hPa | 0 mm | - | 379 W/m² | - |
| 1778188875 | 19.44° C | 40% | 1010 hPa | 0 mm | - | 198 W/m² | - |
| 1778188572 | 20° C | 40% | 1009.7 hPa | 0 mm | - | 491 W/m² | - |
| 1778188267 | 19.44° C | 39% | 1009.8 hPa | 0 mm | - | 513 W/m² | - |
| 1778187965 | 18.89° C | 40% | 1010 hPa | 0 mm | - | 490 W/m² | - |
| 1778187661 | 18.89° C | 39% | 1009.9 hPa | 0 mm | - | 561 W/m² | - |
| 1778187358 | 17.78° C | 40% | 1009.9 hPa | 0 mm | - | 550 W/m² | - |
| 1778187054 | 18.33° C | 43% | 1009.8 hPa | 0 mm | - | 131 W/m² | - |
| 1778186751 | 19.44° C | 40% | 1009.8 hPa | 0 mm | - | 482 W/m² | - |
| 1778186449 | 18.89° C | 40% | 1009.8 hPa | 0 mm | - | 532 W/m² | - |
| 1778186146 | 18.89° C | 40% | 1010.1 hPa | 0 mm | - | 599 W/m² | - |
| 1778185844 | 18.33° C | 42% | 1010.1 hPa | 0 mm | - | 630 W/m² | - |
* Rain latest hour (hover to see other rain measurements)
** Current wind speed in m/s (hover to see current wind gust speed)